createdAt,value
2018-11-07T00:02:08.546Z,6.24
2018-11-07T00:04:36.644Z,6.11
2018-11-07T00:07:04.788Z,6.00
2018-11-07T00:09:32.915Z,6.01
2018-11-07T00:12:01.038Z,6.03
2018-11-07T00:14:29.173Z,6.16
2018-11-07T00:16:57.286Z,6.20
2018-11-07T00:19:25.451Z,6.15
2018-11-07T00:21:53.533Z,6.16
2018-11-07T00:24:21.649Z,5.96
2018-11-07T00:26:49.756Z,5.75
2018-11-07T00:29:17.867Z,5.72
2018-11-07T00:31:46.017Z,5.84
2018-11-07T00:34:14.313Z,5.95
2018-11-07T00:36:42.420Z,6.01
2018-11-07T00:39:11.063Z,5.92
2018-11-07T00:41:39.203Z,5.77
2018-11-07T00:44:07.322Z,5.67
2018-11-07T00:46:35.444Z,5.67
2018-11-07T00:49:03.741Z,5.63
2018-11-07T00:51:31.925Z,5.63
2018-11-07T00:54:00.074Z,5.66
2018-11-07T00:56:28.178Z,5.60
2018-11-07T00:58:56.317Z,5.54
2018-11-07T01:01:24.441Z,5.57
2018-11-07T01:03:52.692Z,5.59
2018-11-07T01:06:20.817Z,5.60
2018-11-07T01:08:48.936Z,5.55
2018-11-07T01:11:17.069Z,5.47
2018-11-07T01:13:45.222Z,5.14
2018-11-07T01:16:13.329Z,5.01
2018-11-07T01:18:41.457Z,5.12
2018-11-07T01:21:09.628Z,5.17
2018-11-07T01:23:37.744Z,5.39
2018-11-07T01:26:06.536Z,5.32
2018-11-07T01:28:34.652Z,5.25
2018-11-07T01:31:02.765Z,5.10
2018-11-07T01:33:31.735Z,4.99
2018-11-07T01:35:59.825Z,4.96
2018-11-07T01:38:28.001Z,5.19
2018-11-07T01:40:56.090Z,5.30
2018-11-07T01:43:24.195Z,5.22
2018-11-07T01:45:52.321Z,5.18
2018-11-07T01:48:20.426Z,5.20
2018-11-07T01:50:48.533Z,5.14
2018-11-07T01:53:16.652Z,5.18
2018-11-07T01:55:44.753Z,5.20
2018-11-07T01:58:12.893Z,5.33
2018-11-07T02:00:41.021Z,5.39
2018-11-07T02:03:09.115Z,5.65
2018-11-07T02:05:37.243Z,5.66
2018-11-07T02:08:05.717Z,5.62
2018-11-07T02:10:33.829Z,5.51
2018-11-07T02:13:02.047Z,5.38
2018-11-07T02:15:30.170Z,5.13
2018-11-07T02:17:58.316Z,5.08
2018-11-07T02:20:26.433Z,5.11
2018-11-07T02:22:54.529Z,5.06
2018-11-07T02:25:22.754Z,5.05
2018-11-07T02:27:50.968Z,5.02
2018-11-07T02:30:19.107Z,5.12
2018-11-07T02:32:47.225Z,5.08
2018-11-07T02:35:15.403Z,5.04
2018-11-07T02:37:44.965Z,4.96
2018-11-07T02:40:13.069Z,5.06
2018-11-07T02:42:41.265Z,5.18
2018-11-07T02:45:09.670Z,5.08
2018-11-07T02:47:41.088Z,5.08
2018-11-07T02:50:12.292Z,5.20
2018-11-07T02:52:40.618Z,5.10
2018-11-07T02:55:08.937Z,5.01
2018-11-07T02:57:37.178Z,5.12
2018-11-07T03:00:07.511Z,5.10
2018-11-07T03:02:36.167Z,5.02
2018-11-07T03:05:04.261Z,5.03
2018-11-07T03:07:32.386Z,5.10
2018-11-07T03:10:00.544Z,5.11
2018-11-07T03:12:28.741Z,5.07
2018-11-07T03:14:56.874Z,4.85
2018-11-07T03:17:25.015Z,4.74
2018-11-07T03:19:53.109Z,4.55
2018-11-07T03:22:21.322Z,4.68
2018-11-07T03:24:49.429Z,4.68
2018-11-07T03:27:18.527Z,4.49
2018-11-07T03:29:46.673Z,4.40
2018-11-07T03:32:14.863Z,4.35
2018-11-07T03:34:43.025Z,4.33
2018-11-07T03:37:11.138Z,4.32
2018-11-07T03:39:39.331Z,4.32
2018-11-07T03:42:07.441Z,4.32
2018-11-07T03:44:35.571Z,4.01
2018-11-07T03:47:03.722Z,4.01
2018-11-07T03:49:31.829Z,3.77
2018-11-07T03:51:59.954Z,3.85
2018-11-07T03:54:28.066Z,3.69
2018-11-07T03:56:56.283Z,3.77
2018-11-07T03:59:24.418Z,3.80
2018-11-07T04:01:52.541Z,3.81
2018-11-07T04:04:20.682Z,3.84
2018-11-07T04:06:48.889Z,3.83
2018-11-07T04:09:16.997Z,3.68
2018-11-07T04:11:45.349Z,3.82
2018-11-07T04:14:13.607Z,3.79
2018-11-07T04:16:41.731Z,3.88
2018-11-07T04:19:10.154Z,3.91
2018-11-07T04:21:38.733Z,4.06
2018-11-07T04:24:06.835Z,4.09
2018-11-07T04:26:36.224Z,3.97
2018-11-07T04:29:04.495Z,3.85
2018-11-07T04:31:33.078Z,3.78
2018-11-07T04:34:01.241Z,3.78
2018-11-07T04:36:29.354Z,3.39
2018-11-07T04:38:57.501Z,3.22
2018-11-07T04:41:25.765Z,3.06
2018-11-07T04:43:53.910Z,3.15
2018-11-07T04:46:22.045Z,3.31
2018-11-07T04:48:50.168Z,3.39
2018-11-07T04:51:18.373Z,3.45
2018-11-07T04:53:46.567Z,3.45
2018-11-07T04:56:14.677Z,3.30
2018-11-07T04:58:42.898Z,3.22
2018-11-07T05:01:10.994Z,3.25
2018-11-07T05:03:39.141Z,3.33
2018-11-07T05:06:07.274Z,3.33
2018-11-07T05:08:35.458Z,3.21
2018-11-07T05:11:03.521Z,3.20
2018-11-07T05:13:31.651Z,3.30
2018-11-07T05:16:00.168Z,3.24
2018-11-07T05:18:28.298Z,3.47
2018-11-07T05:20:56.406Z,3.55
2018-11-07T05:23:24.545Z,3.52
2018-11-07T05:25:52.669Z,3.54
2018-11-07T05:28:20.787Z,3.41
2018-11-07T05:30:48.918Z,3.24
2018-11-07T05:33:17.090Z,3.12
2018-11-07T05:35:45.226Z,3.12
2018-11-07T05:38:13.364Z,3.15
2018-11-07T05:40:41.494Z,3.15
2018-11-07T05:43:09.601Z,3.03
2018-11-07T05:45:37.710Z,2.77
2018-11-07T05:48:05.922Z,2.62
2018-11-07T05:50:34.054Z,2.60
2018-11-07T05:53:02.241Z,2.64
2018-11-07T05:55:30.503Z,2.60
2018-11-07T05:57:58.714Z,2.61
2018-11-07T06:00:26.857Z,2.68
2018-11-07T06:02:55.080Z,2.61
2018-11-07T06:05:23.245Z,2.74
2018-11-07T06:07:51.421Z,2.71
2018-11-07T06:10:19.534Z,2.86
2018-11-07T06:12:47.809Z,2.81
2018-11-07T06:15:15.986Z,2.90
2018-11-07T06:17:44.099Z,3.01
2018-11-07T06:20:12.406Z,3.03
2018-11-07T06:22:40.554Z,2.93
2018-11-07T06:25:08.709Z,2.96
2018-11-07T06:27:36.916Z,2.60
2018-11-07T06:30:07.553Z,2.59
2018-11-07T06:32:35.725Z,2.60
2018-11-07T06:35:03.885Z,2.67
2018-11-07T06:37:32.006Z,2.65
2018-11-07T06:40:00.142Z,2.74
2018-11-07T06:42:28.266Z,2.71
2018-11-07T06:44:56.409Z,2.85
2018-11-07T06:47:24.530Z,2.63
2018-11-07T06:49:52.790Z,2.73
2018-11-07T06:52:20.926Z,2.80
2018-11-07T06:54:49.099Z,2.51
2018-11-07T06:57:17.191Z,2.46
2018-11-07T06:59:45.302Z,2.45
2018-11-07T07:02:13.451Z,2.78
2018-11-07T07:04:41.566Z,2.74
2018-11-07T07:07:09.697Z,2.63
2018-11-07T07:09:37.865Z,2.56
2018-11-07T07:12:06.027Z,2.34
2018-11-07T07:14:34.251Z,2.40
2018-11-07T07:17:03.449Z,2.40
2018-11-07T07:19:31.597Z,2.71
2018-11-07T07:21:59.723Z,2.94
2018-11-07T07:24:28.680Z,3.01
2018-11-07T07:26:56.802Z,3.13
2018-11-07T07:29:24.918Z,3.47
2018-11-07T07:31:53.035Z,3.64
2018-11-07T07:34:21.258Z,3.66
2018-11-07T07:36:49.370Z,4.06
2018-11-07T07:39:17.570Z,4.44
2018-11-07T07:41:45.686Z,4.73
2018-11-07T07:44:13.879Z,4.99
2018-11-07T07:46:41.986Z,5.17
2018-11-07T07:49:10.200Z,5.65
2018-11-07T07:51:38.395Z,5.66
2018-11-07T07:54:06.530Z,5.58
2018-11-07T07:56:34.638Z,6.00
2018-11-07T07:59:03.319Z,6.34
2018-11-07T08:01:31.485Z,6.06
2018-11-07T08:03:59.590Z,6.66
2018-11-07T08:06:28.962Z,6.68
2018-11-07T08:08:57.110Z,6.97
2018-11-07T08:11:25.210Z,7.71
2018-11-07T08:13:53.433Z,7.93
2018-11-07T08:16:21.581Z,8.41
2018-11-07T08:18:49.693Z,8.64
2018-11-07T08:21:17.861Z,9.05
2018-11-07T08:23:45.894Z,8.96
2018-11-07T08:26:13.970Z,9.07
2018-11-07T08:28:42.176Z,8.90
2018-11-07T08:31:10.366Z,9.13
2018-11-07T08:33:38.473Z,9.19
2018-11-07T08:36:06.577Z,9.40
2018-11-07T08:38:34.674Z,9.84
2018-11-07T08:41:03.787Z,10.02
2018-11-07T08:43:31.899Z,10.22
2018-11-07T08:46:00.026Z,10.21
2018-11-07T08:48:28.190Z,10.57
2018-11-07T08:50:56.470Z,11.36
2018-11-07T08:53:24.632Z,12.03
2018-11-07T08:55:52.818Z,12.47
2018-11-07T08:58:20.927Z,12.85
2018-11-07T09:00:49.107Z,13.27
2018-11-07T09:03:17.225Z,13.42
2018-11-07T09:05:45.402Z,13.66
2018-11-07T09:08:13.917Z,13.74
2018-11-07T09:10:42.026Z,14.16
2018-11-07T09:13:10.141Z,13.98
2018-11-07T09:15:38.337Z,14.35
2018-11-07T09:18:06.450Z,14.62
2018-11-07T09:20:34.570Z,14.39
2018-11-07T09:23:02.798Z,14.54
2018-11-07T09:25:30.909Z,14.54
2018-11-07T09:27:59.026Z,14.42
2018-11-07T09:30:27.138Z,14.69
2018-11-07T09:32:55.241Z,15.02
2018-11-07T09:35:23.394Z,15.20
2018-11-07T09:37:51.513Z,15.02
2018-11-07T09:40:20.687Z,14.93
2018-11-07T09:42:49.278Z,15.06
2018-11-07T09:45:18.878Z,15.33
2018-11-07T09:47:47.453Z,15.23
2018-11-07T09:50:16.965Z,15.57
2018-11-07T09:52:45.530Z,15.59
2018-11-07T09:55:15.343Z,15.99
2018-11-07T09:57:43.734Z,15.96
2018-11-07T10:00:13.396Z,15.95
2018-11-07T10:02:41.964Z,16.28
2018-11-07T10:05:10.709Z,16.65
2018-11-07T10:07:39.602Z,16.56
2018-11-07T10:10:09.657Z,16.28
2018-11-07T10:12:38.373Z,16.25
2018-11-07T10:15:07.929Z,16.35
2018-11-07T10:17:36.079Z,16.43
2018-11-07T10:20:06.206Z,16.43
2018-11-07T10:22:34.877Z,15.80
2018-11-07T10:25:02.998Z,15.85
2018-11-07T10:27:31.321Z,15.88
2018-11-07T10:29:59.570Z,16.46
2018-11-07T10:32:27.363Z,16.85
2018-11-07T10:34:55.484Z,16.99
2018-11-07T10:37:32.258Z,16.89
2018-11-07T10:39:51.804Z,17.03
2018-11-07T10:42:19.937Z,17.02
2018-11-07T10:44:48.078Z,16.71
2018-11-07T10:47:16.253Z,16.58
2018-11-07T10:49:44.420Z,16.78
2018-11-07T10:52:12.566Z,16.44
2018-11-07T10:54:41.320Z,16.36
2018-11-07T10:57:09.559Z,16.55
2018-11-07T10:59:37.673Z,16.87
2018-11-07T11:02:11.245Z,16.89
2018-11-07T11:04:39.589Z,17.08
2018-11-07T11:07:07.679Z,17.40
2018-11-07T11:09:35.783Z,17.31
2018-11-07T11:12:04.694Z,17.18
2018-11-07T11:14:32.809Z,16.82
2018-11-07T11:17:01.145Z,16.75
2018-11-07T11:19:29.200Z,16.57
2018-11-07T11:21:57.330Z,16.84
2018-11-07T11:24:25.437Z,16.81
2018-11-07T11:26:53.813Z,16.65
2018-11-07T11:29:21.923Z,16.61
2018-11-07T11:31:50.057Z,16.47
2018-11-07T11:34:18.463Z,16.49
2018-11-07T11:36:46.334Z,16.43
2018-11-07T11:39:14.464Z,16.51
2018-11-07T11:41:43.181Z,16.91
2018-11-07T11:44:11.354Z,17.33
2018-11-07T11:46:40.542Z,17.42
2018-11-07T11:49:08.794Z,17.74
2018-11-07T11:51:36.842Z,17.95
2018-11-07T11:54:04.958Z,17.79
2018-11-07T11:56:33.738Z,17.91
2018-11-07T11:59:01.995Z,17.24
2018-11-07T12:01:30.016Z,16.60
2018-11-07T12:03:58.154Z,16.43
2018-11-07T12:06:26.425Z,16.36
2018-11-07T12:08:54.813Z,16.50
2018-11-07T12:11:22.849Z,16.43
2018-11-07T12:13:52.100Z,16.23
2018-11-07T12:16:20.214Z,16.08
2018-11-07T12:18:48.434Z,16.20
2018-11-07T12:21:16.646Z,16.17
2018-11-07T12:23:44.905Z,15.91
2018-11-07T12:26:13.014Z,15.88
2018-11-07T12:28:41.118Z,15.89
2018-11-07T12:31:09.289Z,15.90
2018-11-07T12:33:37.460Z,15.91
2018-11-07T12:36:05.789Z,15.92
2018-11-07T12:38:33.854Z,15.73
2018-11-07T12:41:02.540Z,15.82
2018-11-07T12:43:30.626Z,15.74
2018-11-07T12:45:58.734Z,15.70
2018-11-07T12:48:26.838Z,15.54
2018-11-07T12:50:54.969Z,15.43
2018-11-07T12:53:24.097Z,15.39
2018-11-07T12:55:52.209Z,15.42
2018-11-07T12:58:20.512Z,15.31
2018-11-07T13:00:48.515Z,15.33
2018-11-07T13:03:16.618Z,15.36
2018-11-07T13:05:44.715Z,15.37
2018-11-07T13:08:12.888Z,15.34
2018-11-07T13:10:41.090Z,15.32
2018-11-07T13:13:09.205Z,15.25
2018-11-07T13:15:37.357Z,15.24
2018-11-07T13:18:05.591Z,15.19
2018-11-07T13:20:33.897Z,15.16
2018-11-07T13:23:02.074Z,15.03
2018-11-07T13:25:30.193Z,14.93
2018-11-07T13:27:58.383Z,14.96
2018-11-07T13:30:26.438Z,14.68
2018-11-07T13:32:54.628Z,14.18
2018-11-07T13:35:22.734Z,13.88
2018-11-07T13:37:51.749Z,13.56
2018-11-07T13:40:21.020Z,13.25
2018-11-07T13:42:49.138Z,12.94
2018-11-07T13:45:19.204Z,12.92
2018-11-07T13:47:50.487Z,12.71
2018-11-07T13:50:19.058Z,12.51
2018-11-07T13:52:49.135Z,12.36
2018-11-07T13:55:17.238Z,12.32
2018-11-07T13:57:46.449Z,12.11
2018-11-07T14:00:16.705Z,12.06
2018-11-07T14:02:45.353Z,11.95
2018-11-07T14:05:13.811Z,11.97
2018-11-07T14:07:41.923Z,12.00
2018-11-07T14:10:12.421Z,11.98
2018-11-07T14:12:41.013Z,12.02
2018-11-07T14:15:11.578Z,11.96
2018-11-07T14:17:39.697Z,12.06
2018-11-07T14:20:13.299Z,12.09
2018-11-07T14:22:41.793Z,12.11
2018-11-07T14:25:10.584Z,12.27
2018-11-07T14:27:38.804Z,12.32
2018-11-07T14:30:09.754Z,12.19
2018-11-07T14:32:38.900Z,12.15
2018-11-07T14:35:07.103Z,12.18
2018-11-07T14:37:35.224Z,12.25
2018-11-07T14:40:03.559Z,12.27
2018-11-07T14:42:31.709Z,12.20
2018-11-07T14:44:59.841Z,12.18
2018-11-07T14:47:28.038Z,12.12
2018-11-07T14:49:56.791Z,12.13
2018-11-07T14:52:24.900Z,12.14
2018-11-07T14:54:53.090Z,12.26
2018-11-07T14:57:21.291Z,12.23
2018-11-07T14:59:49.446Z,12.25
2018-11-07T15:02:17.562Z,12.21
2018-11-07T15:04:45.665Z,12.23
2018-11-07T15:07:13.833Z,12.21
2018-11-07T15:09:42.055Z,12.23
2018-11-07T15:12:10.233Z,12.29
2018-11-07T15:14:38.359Z,12.30
2018-11-07T15:17:06.661Z,12.29
2018-11-07T15:19:34.826Z,12.35
2018-11-07T15:22:03.097Z,12.37
2018-11-07T15:24:31.197Z,12.40
2018-11-07T15:26:59.417Z,12.36
2018-11-07T15:29:27.901Z,12.37
2018-11-07T15:31:56.022Z,12.50
2018-11-07T15:34:24.122Z,12.46
2018-11-07T15:36:53.234Z,12.42
2018-11-07T15:39:21.397Z,12.41
2018-11-07T15:41:49.489Z,12.41
2018-11-07T15:44:17.633Z,12.41
2018-11-07T15:46:45.838Z,12.40
2018-11-07T15:49:14.210Z,12.32
2018-11-07T15:51:42.399Z,12.39
2018-11-07T15:54:10.461Z,12.52
2018-11-07T15:56:38.572Z,12.45
2018-11-07T15:59:07.527Z,12.39
2018-11-07T16:01:35.610Z,12.38
2018-11-07T16:04:03.765Z,12.32
2018-11-07T16:06:31.885Z,12.27
2018-11-07T16:09:00.324Z,12.30
2018-11-07T16:11:29.510Z,12.17
2018-11-07T16:13:58.334Z,12.12
2018-11-07T16:16:27.390Z,12.05
2018-11-07T16:18:55.678Z,11.94
2018-11-07T16:21:23.845Z,11.83
2018-11-07T16:23:52.241Z,11.72
2018-11-07T16:26:20.492Z,11.70
2018-11-07T16:28:48.796Z,11.62
2018-11-07T16:31:16.860Z,11.52
2018-11-07T16:33:44.961Z,11.40
2018-11-07T16:39:12.709Z,11.45
2018-11-07T16:41:41.004Z,11.33
2018-11-07T16:44:08.926Z,11.31
2018-11-07T16:46:37.125Z,11.26
2018-11-07T16:49:05.625Z,11.25
2018-11-07T16:51:33.719Z,11.23
2018-11-07T16:54:02.142Z,11.20
2018-11-07T16:56:30.285Z,11.24
2018-11-07T16:58:58.452Z,11.12
2018-11-07T17:01:26.526Z,11.06
2018-11-07T17:03:54.652Z,11.06
2018-11-07T17:06:22.773Z,11.20
2018-11-07T17:08:50.973Z,11.16
2018-11-07T17:11:19.661Z,11.11
2018-11-07T17:13:47.753Z,11.15
2018-11-07T17:16:15.895Z,11.07
2018-11-07T17:18:44.015Z,11.11
2018-11-07T17:21:12.157Z,11.09
2018-11-07T17:23:40.261Z,11.05
2018-11-07T17:26:08.484Z,11.03
2018-11-07T17:28:36.594Z,11.21
2018-11-07T17:31:05.078Z,11.09
2018-11-07T17:33:33.187Z,11.13
2018-11-07T17:36:01.295Z,11.16
2018-11-07T17:38:29.485Z,11.11
2018-11-07T17:40:57.529Z,11.18
2018-11-07T17:43:25.632Z,11.19
2018-11-07T17:45:53.799Z,11.16
2018-11-07T17:48:21.974Z,11.12
2018-11-07T17:50:50.054Z,11.08
2018-11-07T17:53:18.179Z,11.13
2018-11-07T17:55:46.323Z,11.11
2018-11-07T17:58:14.471Z,11.07
2018-11-07T18:00:44.924Z,11.07
2018-11-07T18:03:13.090Z,11.04
2018-11-07T18:05:41.244Z,11.09
2018-11-07T18:08:09.343Z,11.06
2018-11-07T18:10:37.461Z,11.07
2018-11-07T18:13:05.752Z,11.06
2018-11-07T18:15:33.867Z,11.05
2018-11-07T18:18:01.978Z,11.07
2018-11-07T18:20:30.114Z,11.07
2018-11-07T18:22:58.223Z,11.11
2018-11-07T18:25:26.341Z,11.06
2018-11-07T18:27:54.535Z,11.05
2018-11-07T18:30:22.643Z,11.08
2018-11-07T18:32:50.749Z,11.09
2018-11-07T18:35:19.824Z,11.11
2018-11-07T18:37:48.089Z,11.10
2018-11-07T18:40:17.602Z,11.02
2018-11-07T18:42:45.809Z,11.09
2018-11-07T18:45:14.346Z,11.16
2018-11-07T18:47:44.598Z,11.14
2018-11-07T18:50:14.047Z,11.17
2018-11-07T18:52:42.474Z,11.18
2018-11-07T18:55:12.185Z,11.17
2018-11-07T18:57:40.637Z,11.24
2018-11-07T19:00:10.686Z,11.20
2018-11-07T19:02:39.037Z,11.20
2018-11-07T19:05:07.724Z,11.31
2018-11-07T19:07:36.334Z,11.33
2018-11-07T19:10:05.732Z,11.32
2018-11-07T19:12:33.846Z,11.46
2018-11-07T19:15:01.987Z,11.36
2018-11-07T19:17:30.241Z,11.26
2018-11-07T19:19:58.353Z,11.24
2018-11-07T19:22:26.575Z,11.31
2018-11-07T19:24:54.725Z,11.32
2018-11-07T19:27:22.982Z,11.22
2018-11-07T19:29:50.998Z,11.22
2018-11-07T19:32:19.103Z,11.19
2018-11-07T19:34:47.347Z,11.25
2018-11-07T19:37:18.130Z,11.37
2018-11-07T19:39:46.413Z,11.38
2018-11-07T19:42:14.533Z,11.38
2018-11-07T19:44:42.677Z,11.39
2018-11-07T19:47:10.842Z,11.40
2018-11-07T19:49:40.298Z,11.34
2018-11-07T19:52:09.869Z,11.42
2018-11-07T19:54:39.534Z,11.43
2018-11-07T19:57:09.885Z,11.33
2018-11-07T19:59:39.814Z,11.32
2018-11-07T20:02:08.191Z,11.41
2018-11-07T20:04:38.809Z,11.42
2018-11-07T20:07:09.230Z,11.40
2018-11-07T20:09:39.692Z,11.39
2018-11-07T20:12:09.582Z,11.49
2018-11-07T20:14:39.104Z,11.42
2018-11-07T20:17:09.675Z,11.36
2018-11-07T20:19:39.546Z,11.34
2018-11-07T20:22:10.246Z,11.45
2018-11-07T20:24:38.426Z,11.64
2018-11-07T20:27:06.733Z,11.49
2018-11-07T20:29:34.897Z,11.47
2018-11-07T20:32:03.001Z,11.48
2018-11-07T20:34:31.117Z,11.71
2018-11-07T20:36:59.353Z,11.60
2018-11-07T20:39:27.525Z,11.71
2018-11-07T20:41:55.848Z,11.76
2018-11-07T20:44:24.262Z,11.61
2018-11-07T20:46:52.454Z,11.51
2018-11-07T20:49:20.708Z,11.60
2018-11-07T20:51:48.847Z,11.54
2018-11-07T20:54:16.949Z,11.54
2018-11-07T20:56:45.241Z,11.59
2018-11-07T20:59:13.898Z,11.71
2018-11-07T21:01:42.094Z,11.80
2018-11-07T21:04:10.193Z,11.80
2018-11-07T21:06:38.338Z,11.57
2018-11-07T21:09:08.746Z,11.30
2018-11-07T21:11:36.870Z,11.45
2018-11-07T21:14:05.214Z,11.53
2018-11-07T21:16:33.342Z,11.41
2018-11-07T21:19:01.470Z,11.39
2018-11-07T21:21:29.625Z,11.48
2018-11-07T21:23:57.746Z,11.67
2018-11-07T21:26:25.856Z,11.67
2018-11-07T21:28:53.998Z,11.69
2018-11-07T21:31:22.190Z,11.78
2018-11-07T21:33:50.345Z,11.76
2018-11-07T21:36:19.361Z,11.76
2018-11-07T21:38:47.646Z,11.79
2018-11-07T21:41:15.746Z,11.86
2018-11-07T21:43:43.944Z,11.90
2018-11-07T21:46:12.043Z,11.90
2018-11-07T21:48:40.258Z,11.85
2018-11-07T21:51:08.390Z,11.77
2018-11-07T21:53:36.492Z,11.79
2018-11-07T21:56:04.586Z,11.81
2018-11-07T21:58:32.701Z,11.86
2018-11-07T22:01:00.809Z,11.94
2018-11-07T22:03:30.057Z,11.88
2018-11-07T22:05:58.246Z,11.82
2018-11-07T22:08:26.327Z,11.40
2018-11-07T22:10:54.438Z,11.34
2018-11-07T22:13:22.575Z,11.36
2018-11-07T22:15:50.725Z,11.46
2018-11-07T22:18:18.829Z,11.53
2018-11-07T22:20:46.937Z,11.61
2018-11-07T22:23:15.137Z,11.66
2018-11-07T22:25:43.262Z,11.74
2018-11-07T22:28:11.390Z,11.72
2018-11-07T22:30:39.497Z,11.82
2018-11-07T22:33:07.594Z,11.75
2018-11-07T22:35:35.705Z,11.80
2018-11-07T22:38:03.882Z,11.78
2018-11-07T22:40:32.022Z,11.89
2018-11-07T22:43:00.245Z,11.81
2018-11-07T22:45:28.349Z,11.76
2018-11-07T22:47:56.491Z,11.76
2018-11-07T22:50:24.599Z,11.64
2018-11-07T22:52:52.701Z,11.26
2018-11-07T22:55:20.950Z,11.35
2018-11-07T22:57:49.069Z,11.45
2018-11-07T23:00:23.098Z,11.56
2018-11-07T23:02:52.390Z,11.60
2018-11-07T23:05:20.580Z,11.67
2018-11-07T23:07:49.077Z,11.92
2018-11-07T23:10:17.186Z,11.55
2018-11-07T23:12:45.274Z,11.58
2018-11-07T23:15:17.559Z,11.60
2018-11-07T23:17:45.689Z,11.57
2018-11-07T23:20:13.796Z,11.48
2018-11-07T23:22:42.019Z,11.49
2018-11-07T23:25:10.152Z,11.52
2018-11-07T23:27:38.298Z,11.61
2018-11-07T23:30:06.919Z,11.61
2018-11-07T23:32:35.030Z,11.64
2018-11-07T23:35:03.143Z,11.58
2018-11-07T23:37:31.437Z,11.65
2018-11-07T23:39:59.587Z,11.62
2018-11-07T23:42:27.698Z,11.65
2018-11-07T23:44:55.834Z,11.63
2018-11-07T23:47:23.991Z,11.65
2018-11-07T23:49:52.235Z,11.70
2018-11-07T23:52:25.681Z,11.81
2018-11-07T23:54:53.789Z,11.67
2018-11-07T23:57:21.999Z,11.82
2018-11-07T23:59:50.101Z,11.67
